Time;durP1;ratioP1;P1;durP2;ratioP2;P2;SDS_P1;SDS_P2;PMS_P1;PMS_P2;Temp;Humidity;BMP_temperature;BMP_pressure;BME280_temperature;BME280_humidity;BME280_pressure;Samples;Min_cycle;Max_cycle;Signal;HPM_P1;HPM_P2
2021/04/25 00:01:45;;;;;;;1.77;1.30;;;;;;;6.38;76.68;99661.38;10372806;28;20184;-75
2021/04/25 00:07:05;;;;;;;2.23;1.83;;;;;;;6.28;77.77;99669.34;10373236;28;20219;-75
2021/04/25 00:12:24;;;;;;;2.17;1.20;;;;;;;6.24;77.64;99660.25;10373939;28;20255;-75
2021/04/25 00:17:44;;;;;;;2.13;1.60;;;;;;;6.22;77.11;99662.53;10373809;28;20173;-75
2021/04/25 00:23:03;;;;;;;1.70;1.57;;;;;;;6.19;77.41;99662.47;10373844;28;20177;-75
2021/04/25 00:28:22;;;;;;;4.37;2.63;;;;;;;6.10;78.28;99662.69;10372206;28;20259;-75
2021/04/25 00:33:41;;;;;;;2.33;2.10;;;;;;;6.12;77.77;99663.13;10373598;28;20530;-75
2021/04/25 00:39:00;;;;;;;2.47;2.00;;;;;;;6.11;77.84;99650.63;10373445;28;20761;-75
2021/04/25 00:44:19;;;;;;;2.60;2.03;;;;;;;6.13;77.85;99661.16;10356973;28;20736;-75
2021/04/25 00:49:38;;;;;;;3.57;1.90;;;;;;;6.04;79.15;99663.31;10373224;28;20538;-75
2021/04/25 00:54:57;;;;;;;2.07;1.87;;;;;;;6.04;79.42;99650.44;10358265;28;20192;-75
2021/04/25 01:00:17;;;;;;;4.43;2.37;;;;;;;5.92;80.24;99649.78;10371715;28;20686;-75
2021/04/25 01:05:36;;;;;;;2.20;1.83;;;;;;;5.75;80.92;99648.16;10372497;28;20208;-76
2021/04/25 01:10:55;;;;;;;4.97;1.77;;;;;;;5.65;80.21;99642.44;10378791;28;20180;-75
2021/04/25 01:16:14;;;;;;;3.10;1.40;;;;;;;5.53;81.60;99651.53;10378668;28;20180;-75
2021/04/25 01:21:33;;;;;;;4.57;1.90;;;;;;;5.45;80.76;99659.09;10364933;28;20177;-75
2021/04/25 01:26:52;;;;;;;1.37;0.97;;;;;;;5.26;82.73;99664.44;10379008;28;20247;-75
2021/04/25 01:32:11;;;;;;;1.67;1.57;;;;;;;5.20;82.95;99657.66;10377933;28;20185;-75
2021/04/25 01:37:30;;;;;;;1.83;1.67;;;;;;;5.14;83.12;99665.28;10379118;28;20189;-75
2021/04/25 01:42:49;;;;;;;1.73;1.43;;;;;;;5.05;81.84;99652.97;10376733;28;20180;-75
2021/04/25 01:48:09;;;;;;;1.97;1.43;;;;;;;4.98;84.52;99650.84;10378180;28;20315;-75
2021/04/25 01:53:28;;;;;;;1.27;1.10;;;;;;;4.85;86.46;99657.50;10377555;28;20189;-75
2021/04/25 01:58:47;;;;;;;2.83;2.63;;;;;;;4.80;87.26;99646.88;10362305;28;20180;-75
2021/04/25 02:04:06;;;;;;;4.03;2.20;;;;;;;4.76;87.90;99640.50;10377937;28;20240;-74
2021/04/25 02:09:24;;;;;;;2.10;1.90;;;;;;;4.67;88.49;99641.81;10378007;28;20181;-74
2021/04/25 02:14:43;;;;;;;1.63;1.53;;;;;;;4.56;89.41;99648.88;10375377;28;20204;-75
2021/04/25 02:20:05;;;;;;;2.30;1.20;;;;;;;4.47;89.89;99633.81;10361707;28;20177;-74
2021/04/25 02:25:24;;;;;;;3.10;1.37;;;;;;;4.40;87.88;99647.25;10377039;28;20295;-74
2021/04/25 02:30:45;;;;;;;2.90;1.70;;;;;;;4.31;86.61;99646.59;10376008;28;20177;-75
2021/04/25 02:36:05;;;;;;;4.27;2.57;;;;;;;4.31;88.58;99650.09;10362251;28;20212;-75
2021/04/25 02:41:27;;;;;;;1.60;1.27;;;;;;;4.18;91.52;99648.53;10361498;28;20259;-75
2021/04/25 02:46:46;;;;;;;2.80;1.83;;;;;;;4.04;91.58;99650.03;10374807;28;20224;-75
2021/04/25 02:52:05;;;;;;;5.77;2.70;;;;;;;3.94;92.59;99650.50;10376177;28;20172;-75
2021/04/25 02:57:25;;;;;;;4.20;2.10;;;;;;;3.91;95.15;99647.66;10374995;28;20173;-75
2021/04/25 03:02:44;;;;;;;2.17;1.30;;;;;;;3.93;96.47;99652.44;10375725;28;20200;-76
2021/04/25 03:08:03;;;;;;;2.03;1.67;;;;;;;3.72;97.25;99650.16;10375164;28;20251;-75
2021/04/25 03:13:22;;;;;;;2.60;2.17;;;;;;;3.56;96.54;99654.69;10374299;28;20200;-75
2021/04/25 03:18:41;;;;;;;2.07;1.30;;;;;;;3.44;97.00;99647.31;10375424;28;20206;-75
2021/04/25 03:24:00;;;;;;;3.57;1.37;;;;;;;3.44;98.46;99654.69;10360391;28;20201;-76
2021/04/25 03:29:19;;;;;;;1.63;1.53;;;;;;;3.34;99.99;99649.69;10372815;28;20173;-76
2021/04/25 03:34:38;;;;;;;2.97;2.40;;;;;;;3.30;99.00;99659.66;10374662;28;20177;-75
2021/04/25 03:39:58;;;;;;;2.63;1.20;;;;;;;3.22;98.38;99646.97;10374586;28;20620;-76
2021/04/25 03:45:19;;;;;;;2.20;2.07;;;;;;;3.19;98.24;99655.78;10371769;28;20228;-75
2021/04/25 03:50:38;;;;;;;2.20;1.33;;;;;;;3.17;97.14;99652.59;10374370;28;20251;-75
2021/04/25 03:55:57;;;;;;;2.73;2.10;;;;;;;3.07;96.64;99650.31;10374305;28;20185;-75
2021/04/25 04:01:16;;;;;;;3.00;2.80;;;;;;;2.98;97.88;99651.53;10371651;28;20172;-75
2021/04/25 04:06:34;;;;;;;1.63;0.90;;;;;;;2.96;98.79;99657.31;10373771;28;20208;-75
2021/04/25 04:11:53;;;;;;;1.93;1.40;;;;;;;2.98;98.06;99654.25;10358840;28;20173;-75
2021/04/25 04:17:13;;;;;;;3.47;2.47;;;;;;;2.90;97.56;99655.94;10357677;28;20639;-76
2021/04/25 04:22:33;;;;;;;1.80;1.70;;;;;;;3.05;100.00;99657.22;10372900;28;20185;-76
2021/04/25 04:27:52;;;;;;;2.97;1.33;;;;;;;3.04;100.00;99656.44;10371669;28;20662;-75
2021/04/25 04:33:11;;;;;;;4.53;1.63;;;;;;;2.99;100.00;99659.34;10373478;28;20663;-76
2021/04/25 04:38:30;;;;;;;3.20;1.47;;;;;;;2.99;100.00;99656.63;10373324;28;20266;-76
2021/04/25 04:43:49;;;;;;;1.70;1.60;;;;;;;3.25;100.00;99657.16;10375002;28;20196;-75
2021/04/25 04:49:08;;;;;;;4.30;1.97;;;;;;;3.50;100.00;99656.84;10380981;28;20176;-76
2021/04/25 04:54:28;;;;;;;3.67;0.97;;;;;;;3.65;100.00;99663.53;10365500;28;20209;-75
2021/04/25 04:59:48;;;;;;;1.83;1.20;;;;;;;3.80;100.00;99668.28;10379314;28;20185;-75
2021/04/25 05:05:08;;;;;;;2.90;2.40;;;;;;;3.98;100.00;99663.06;10379228;28;20213;-75
2021/04/25 05:10:27;;;;;;;3.00;2.43;;;;;;;4.11;99.92;99670.13;10379215;28;20268;-75
2021/04/25 05:15:46;;;;;;;3.70;1.40;;;;;;;4.31;98.68;99663.69;10363751;28;20172;-75
2021/04/25 05:21:05;;;;;;;1.40;0.93;;;;;;;4.60;96.12;99659.88;10379835;28;20255;-74
2021/04/25 05:26:24;;;;;;;2.10;1.17;;;;;;;4.93;93.05;99669.38;10364379;28;20243;-75
2021/04/25 05:31:44;;;;;;;1.70;1.60;;;;;;;5.20;90.11;99674.84;10363356;28;20173;-75
2021/04/25 05:37:03;;;;;;;2.10;1.37;;;;;;;5.50;85.78;99678.72;10364443;28;20173;-76
2021/04/25 05:42:22;;;;;;;1.50;1.40;;;;;;;5.76;83.64;99677.06;10379100;28;20173;-74
2021/04/25 05:47:41;;;;;;;8.53;2.27;;;;;;;6.01;83.76;99685.88;10378033;28;20220;-75
2021/04/25 05:53:01;;;;;;;2.40;1.57;;;;;;;6.31;80.00;99693.19;10377580;28;20189;-75
2021/04/25 05:58:20;;;;;;;1.73;1.47;;;;;;;6.53;78.48;99695.28;10377240;28;20647;-77
2021/04/25 06:03:38;;;;;;;1.63;1.33;;;;;;;6.81;77.26;99707.59;10378086;28;20197;-76
2021/04/25 06:08:58;;;;;;;2.17;1.70;;;;;;;7.18;75.48;99695.84;10378096;28;20184;-77
2021/04/25 06:14:17;;;;;;;2.70;1.70;;;;;;;7.51;74.28;99698.78;10376637;28;20192;-75
2021/04/25 06:19:36;;;;;;;1.87;1.33;;;;;;;7.89;71.36;99709.66;10362991;28;20537;-75
2021/04/25 06:24:55;;;;;;;3.77;3.13;;;;;;;8.22;69.48;99702.38;10376230;28;20201;-76
2021/04/25 06:30:16;;;;;;;3.50;2.23;;;;;;;8.40;68.71;99708.91;10361227;28;20172;-75
2021/04/25 06:35:35;;;;;;;1.30;1.20;;;;;;;8.78;67.19;99714.16;10377021;28;20169;-75
2021/04/25 06:40:54;;;;;;;2.50;2.30;;;;;;;9.17;64.61;99718.97;10376866;28;20643;-75
2021/04/25 06:46:13;;;;;;;9.60;2.77;;;;;;;9.46;63.53;99720.06;10374791;28;20657;-75
2021/04/25 06:51:32;;;;;;;3.27;1.80;;;;;;;10.01;61.84;99723.38;10361574;28;20184;-76
2021/04/25 06:56:51;;;;;;;2.43;1.63;;;;;;;10.22;61.04;99717.28;10375879;28;20639;-76
2021/04/25 07:02:09;;;;;;;2.13;1.73;;;;;;;10.75;58.83;99719.97;10374624;28;20209;-76
2021/04/25 07:07:28;;;;;;;6.60;1.80;;;;;;;11.20;57.73;99724.94;10360038;28;20645;-75
2021/04/25 07:12:47;;;;;;;3.50;2.50;;;;;;;11.31;55.84;99726.53;10374334;28;20205;-76
2021/04/25 07:18:06;;;;;;;6.73;3.23;;;;;;;11.60;55.39;99719.94;10360530;28;20612;-75
2021/04/25 07:23:25;;;;;;;2.53;1.90;;;;;;;12.42;52.79;99723.16;10375122;28;20203;-76
2021/04/25 07:28:45;;;;;;;2.50;1.70;;;;;;;12.66;50.21;99719.59;10373856;28;20177;-76
2021/04/25 07:34:04;;;;;;;7.00;1.80;;;;;;;12.60;50.31;99712.09;10373700;28;20624;-75
2021/04/25 07:39:23;;;;;;;4.20;1.67;;;;;;;12.52;49.35;99714.06;10359781;28;20180;-76
2021/04/25 07:44:43;;;;;;;3.23;1.90;;;;;;;13.47;48.33;99711.81;10373081;28;20315;-75
2021/04/25 07:50:02;;;;;;;3.50;2.70;;;;;;;14.11;48.02;99716.53;10374443;28;20188;-76
2021/04/25 07:55:22;;;;;;;7.33;2.80;;;;;;;14.31;40.25;99712.81;10374503;28;20184;-76
2021/04/25 08:00:41;;;;;;;3.00;1.83;;;;;;;14.37;43.40;99719.50;10372824;28;20670;-76
2021/04/25 08:06:01;;;;;;;3.27;2.33;;;;;;;15.15;41.56;99713.50;10373862;28;20563;-76
2021/04/25 08:11:20;;;;;;;2.37;1.80;;;;;;;15.31;40.34;99722.06;10373930;28;20184;-76
2021/04/25 08:16:39;;;;;;;2.60;2.40;;;;;;;14.69;42.80;99725.53;10372690;28;20185;-76
2021/04/25 08:21:58;;;;;;;2.80;1.90;;;;;;;14.03;41.71;99726.84;10382196;28;20178;-75
2021/04/25 08:27:17;;;;;;;2.10;2.00;;;;;;;13.66;43.48;99717.63;10381491;28;20220;-76
2021/04/25 08:32:36;;;;;;;5.60;2.17;;;;;;;14.85;41.06;99718.22;10380913;28;20210;-76
2021/04/25 08:37:56;;;;;;;3.57;1.90;;;;;;;15.58;38.39;99719.31;10366924;28;20204;-76
2021/04/25 08:43:15;;;;;;;5.57;1.93;;;;;;;15.99;35.94;99715.94;10380168;28;20204;-76
2021/04/25 08:48:35;;;;;;;9.10;1.80;;;;;;;16.61;35.10;99718.09;10379290;28;20311;-76
2021/04/25 08:53:54;;;;;;;3.37;2.03;;;;;;;16.62;35.35;99714.91;10381127;28;20177;-76
2021/04/25 08:59:13;;;;;;;3.07;1.87;;;;;;;17.03;34.30;99716.09;10378589;28;20177;-77
2021/04/25 09:04:32;;;;;;;2.63;2.17;;;;;;;17.83;33.65;99710.84;10380385;28;20205;-77
2021/04/25 09:09:57;;;;;;;3.40;2.40;;;;;;;17.60;33.33;99706.19;10380354;28;20172;-77
2021/04/25 09:15:16;;;;;;;4.50;1.77;;;;;;;17.87;32.19;99714.31;10378970;28;20268;-77
2021/04/25 09:20:47;;;;;;;1.80;1.43;;;;;;;17.86;31.84;99710.75;10379956;28;20177;-77
2021/04/25 09:26:10;;;;;;;3.00;1.70;;;;;;;18.40;31.71;99697.91;10364494;28;20208;-77
2021/04/25 09:31:29;;;;;;;5.00;2.00;;;;;;;16.64;33.64;99706.94;10363010;28;20172;-76
2021/04/25 09:36:48;;;;;;;5.00;1.83;;;;;;;17.54;34.38;99689.66;10379213;28;20177;-77
2021/04/25 09:42:07;;;;;;;2.07;1.77;;;;;;;18.64;32.68;99686.16;10379118;28;20177;-77
2021/04/25 09:47:33;;;;;;;3.70;2.20;;;;;;;18.58;32.06;99692.69;10377084;28;20695;-77
2021/04/25 09:52:52;;;;;;;2.90;1.70;;;;;;;18.46;31.60;99687.81;10363100;28;20177;-76
2021/04/25 09:58:11;;;;;;;2.13;1.47;;;;;;;19.46;29.95;99689.03;10369841;28;20185;-77
2021/04/25 10:03:36;;;;;;;5.23;2.00;;;;;;;20.11;28.03;99682.59;10378223;28;20204;-77
2021/04/25 10:08:55;;;;;;;3.50;2.93;;;;;;;20.42;28.73;99681.53;10378148;28;20185;-77
2021/04/25 10:14:14;;;;;;;2.30;1.70;;;;;;;20.84;28.40;99680.06;10361714;28;20181;-77
2021/04/25 10:19:34;;;;;;;1.87;1.70;;;;;;;20.27;30.05;99680.44;10378073;28;20712;-77
2021/04/25 10:24:53;;;;;;;2.37;2.00;;;;;;;19.48;28.91;99672.59;10362334;28;20236;-76
2021/04/25 10:30:14;;;;;;;3.67;2.50;;;;;;;20.41;31.05;99654.81;10376020;28;20204;-76
2021/04/25 10:35:34;;;;;;;2.30;2.07;;;;;;;21.33;26.88;99658.69;10376881;28;20173;-77
2021/04/25 10:41:20;;;;;;;6.53;2.20;;;;;;;21.97;25.83;99653.72;10375914;28;20692;-76
2021/04/25 10:46:54;;;;;;;3.03;1.80;;;;;;;22.08;26.18;99642.09;10368954;28;20229;-78
2021/04/25 10:52:20;;;;;;;2.07;1.87;;;;;;;22.48;26.42;99645.63;10375252;28;20186;-76
2021/04/25 10:57:55;;;;;;;2.33;1.80;;;;;;;21.69;26.33;99634.47;10375270;28;20188;-77
2021/04/25 11:03:37;;;;;;;3.50;2.43;;;;;;;20.85;27.36;99630.53;10354861;28;20197;-77
2021/04/25 11:08:57;;;;;;;9.73;2.70;;;;;;;21.06;26.47;99627.75;10382504;28;20705;-77
2021/04/25 11:14:38;;;;;;;2.80;1.60;;;;;;;21.59;26.58;99632.09;10354288;28;20185;-80
2021/04/25 11:19:57;;;;;;;4.33;1.83;;;;;;;21.82;28.83;99630.31;10381996;28;20192;-78
2021/04/25 11:25:29;;;;;;;3.03;1.97;;;;;;;22.00;25.85;99624.03;10400178;28;20207;-77
2021/04/25 11:30:48;;;;;;;2.97;2.27;;;;;;;21.88;25.54;99624.91;10413294;28;20180;-77
2021/04/25 11:36:40;;;;;;;2.87;2.07;;;;;;;22.43;24.74;99609.78;10411827;28;20177;-77
2021/04/25 11:42:00;;;;;;;2.87;1.97;;;;;;;20.54;27.63;99621.25;10359392;28;20173;-77
2021/04/25 11:47:20;;;;;;;5.33;1.77;;;;;;;22.07;25.28;99613.28;10372246;28;20236;-77
2021/04/25 11:52:40;;;;;;;3.47;1.90;;;;;;;21.20;28.58;99610.41;10358569;28;20189;-77
2021/04/25 11:58:00;;;;;;;1.70;1.60;;;;;;;21.76;26.73;99601.38;10372461;28;21022;-77
2021/04/25 12:03:20;;;;;;;2.03;1.83;;;;;;;22.55;26.48;99590.00;10373330;28;20197;-78
2021/04/25 12:08:50;;;;;;;2.03;1.33;;;;;;;23.23;24.23;99600.56;10373005;28;20223;-78
2021/04/25 12:14:20;;;;;;;6.27;2.67;;;;;;;23.51;24.08;99597.97;10337456;28;20268;-77
2021/04/25 12:19:39;;;;;;;2.13;1.80;;;;;;;23.68;24.49;99601.97;10332561;28;20177;-77
2021/04/25 12:24:59;;;;;;;7.63;2.67;;;;;;;22.99;25.47;99588.44;10332383;28;20292;-78
2021/04/25 12:30:22;;;;;;;1.77;1.63;;;;;;;21.09;27.20;99591.22;10330351;28;20227;-76
2021/04/25 12:35:47;;;;;;;3.30;2.03;;;;;;;22.47;24.83;99574.75;10348764;28;20184;-77
2021/04/25 12:41:12;;;;;;;2.40;1.87;;;;;;;21.78;24.76;99584.09;10373180;28;20628;-76
2021/04/25 12:46:31;;;;;;;2.43;1.70;;;;;;;22.90;25.42;99585.63;10370768;28;20311;-77
2021/04/25 12:51:50;;;;;;;2.43;1.80;;;;;;;24.44;22.62;99557.19;10357997;28;20193;-77
2021/04/25 12:57:09;;;;;;;5.63;1.80;;;;;;;24.68;23.62;99552.31;10357986;28;20240;-77
2021/04/25 13:02:33;;;;;;;3.10;1.40;;;;;;;25.07;23.47;99541.25;10356395;28;20224;-77
2021/04/25 13:07:52;;;;;;;2.90;1.87;;;;;;;24.47;22.87;99540.13;10379131;28;20208;-77
2021/04/25 13:13:14;;;;;;;2.97;1.60;;;;;;;23.04;23.03;99540.09;10362871;28;20200;-77
2021/04/25 13:18:36;;;;;;;1.93;1.83;;;;;;;23.79;24.42;99539.66;10379627;28;20229;-79
2021/04/25 13:23:55;;;;;;;4.97;2.23;;;;;;;23.31;23.97;99542.81;10379476;28;20192;-78
2021/04/25 13:29:20;;;;;;;1.50;1.40;;;;;;;23.28;24.42;99549.38;10363491;28;20177;-77
2021/04/25 13:34:39;;;;;;;4.07;2.20;;;;;;;23.17;24.54;99538.66;10379338;28;20175;-77
2021/04/25 13:39:58;;;;;;;3.67;1.60;;;;;;;23.45;23.83;99538.09;10350519;28;20217;-78
2021/04/25 13:45:17;;;;;;;2.20;2.00;;;;;;;23.46;23.55;99528.41;10377256;28;20236;-79
2021/04/25 13:50:37;;;;;;;1.70;1.60;;;;;;;22.30;26.54;99525.03;10363873;28;20198;-79
2021/04/25 13:55:58;;;;;;;1.77;1.23;;;;;;;22.43;25.70;99529.28;10378264;28;20566;-78
2021/04/25 14:01:19;;;;;;;1.50;1.20;;;;;;;22.94;25.90;99525.28;10376884;28;20249;-78
2021/04/25 14:06:39;;;;;;;3.40;1.47;;;;;;;23.32;24.59;99519.13;10362686;28;20678;-76
2021/04/25 14:11:58;;;;;;;1.30;1.20;;;;;;;22.75;25.52;99518.16;10362738;28;20616;-77
2021/04/25 14:17:17;;;;;;;2.03;1.30;;;;;;;22.35;25.72;99514.00;10376557;28;20184;-77
2021/04/25 14:22:37;;;;;;;1.70;1.60;;;;;;;22.57;25.36;99511.81;10362581;28;20180;-76
2021/04/25 14:27:58;;;;;;;1.80;1.40;;;;;;;22.77;24.72;99514.91;10374513;28;20290;-78
2021/04/25 14:33:17;;;;;;;3.37;1.97;;;;;;;22.93;24.29;99508.94;10361160;28;20192;-77
2021/04/25 14:38:37;;;;;;;3.40;1.40;;;;;;;23.04;24.06;99512.03;10376922;28;20639;-79
2021/04/25 14:43:56;;;;;;;1.50;1.40;;;;;;;23.04;23.96;99509.22;10375062;28;20255;-79
2021/04/25 14:49:15;;;;;;;1.37;1.27;;;;;;;22.84;24.56;99506.91;10361704;28;20204;-79
2021/04/25 14:54:34;;;;;;;2.47;1.37;;;;;;;22.43;24.03;99520.84;10376425;28;20534;-79
2021/04/25 14:59:53;;;;;;;1.83;1.73;;;;;;;21.85;23.20;99503.34;10374781;28;20222;-78
2021/04/25 15:05:12;;;;;;;1.40;0.90;;;;;;;21.87;23.97;99506.47;10376629;28;20212;-78
2021/04/25 15:10:32;;;;;;;1.20;0.97;;;;;;;21.53;24.09;99502.31;10361901;28;20172;-77
2021/04/25 15:15:51;;;;;;;3.10;1.57;;;;;;;21.17;25.38;99502.16;10374633;28;20627;-78
2021/04/25 15:21:10;;;;;;;1.10;0.90;;;;;;;21.65;24.19;99505.03;10360601;28;20670;-76
2021/04/25 15:26:29;;;;;;;3.03;1.10;;;;;;;21.38;24.15;99498.53;10345956;28;20204;-76
2021/04/25 15:31:53;;;;;;;8.67;1.43;;;;;;;20.65;25.80;99507.00;10373737;28;20189;-77
2021/04/25 15:37:15;;;;;;;1.37;1.10;;;;;;;20.44;24.89;99508.56;10374982;28;20551;-77
2021/04/25 15:42:34;;;;;;;1.80;1.20;;;;;;;20.76;25.08;99510.19;10359932;28;20210;-77
2021/04/25 15:47:53;;;;;;;2.00;1.53;;;;;;;20.38;24.82;99512.41;10373905;28;20232;-76
2021/04/25 15:53:12;;;;;;;1.30;1.00;;;;;;;20.41;24.79;99503.91;10374433;28;20169;-77
2021/04/25 15:58:32;;;;;;;1.30;1.00;;;;;;;19.68;25.52;99511.28;10372880;28;20188;-76
2021/04/25 16:03:52;;;;;;;5.83;1.10;;;;;;;19.30;25.97;99524.50;10359299;28;20251;-78
2021/04/25 16:09:11;;;;;;;1.60;1.07;;;;;;;19.05;25.71;99523.66;10373877;28;20546;-77
2021/04/25 16:14:30;;;;;;;1.23;0.93;;;;;;;19.20;25.87;99525.59;10372768;28;20181;-76
2021/04/25 16:19:49;;;;;;;1.50;1.20;;;;;;;18.36;27.70;99527.31;10373856;28;20164;-78
2021/04/25 16:25:10;;;;;;;4.63;1.33;;;;;;;17.96;27.80;99531.56;10373451;28;20212;-77
2021/04/25 16:30:29;;;;;;;1.97;0.73;;;;;;;18.18;27.84;99528.97;10372350;28;20255;-79
2021/04/25 16:35:48;;;;;;;1.90;1.80;;;;;;;17.61;29.22;99532.44;10373383;28;20169;-77
2021/04/25 16:41:06;;;;;;;1.97;1.50;;;;;;;16.23;31.50;99536.28;10363763;28;20624;-78
2021/04/25 16:46:25;;;;;;;1.60;1.10;;;;;;;15.66;32.54;99541.28;10379417;28;20236;-78
2021/04/25 16:51:44;;;;;;;1.40;1.00;;;;;;;15.10;33.21;99540.59;10380203;28;20177;-78
2021/04/25 16:57:05;;;;;;;1.10;1.00;;;;;;;15.09;33.20;99550.09;10380855;28;20575;-77
2021/04/25 17:02:24;;;;;;;1.43;1.10;;;;;;;14.61;33.55;99560.63;10379626;28;20169;-78
2021/04/25 17:07:44;;;;;;;3.47;1.30;;;;;;;14.10;33.19;99568.28;10379979;28;20251;-78
2021/04/25 17:13:03;;;;;;;2.23;1.47;;;;;;;13.82;33.77;99565.81;10364431;28;20212;-77
2021/04/25 17:18:23;;;;;;;1.60;1.30;;;;;;;13.71;33.21;99557.63;10365088;28;20251;-76
2021/04/25 17:23:42;;;;;;;1.47;1.03;;;;;;;13.32;32.88;99558.34;10380069;28;20173;-78
2021/04/25 17:29:02;;;;;;;2.07;0.97;;;;;;;14.57;31.10;99563.44;10378205;28;20189;-76
2021/04/25 17:34:21;;;;;;;1.20;1.07;;;;;;;14.13;32.42;99565.53;10379570;28;20623;-75
2021/04/25 17:39:40;;;;;;;4.83;1.23;;;;;;;14.81;30.86;99558.78;10379409;28;20185;-76
2021/04/25 17:44:59;;;;;;;1.60;1.13;;;;;;;14.11;30.79;99567.13;10377469;28;20716;-76
2021/04/25 17:50:23;;;;;;;1.20;1.00;;;;;;;13.59;31.67;99571.91;10363797;28;20180;-77
2021/04/25 17:55:42;;;;;;;3.40;1.00;;;;;;;12.48;33.92;99572.56;10363834;28;20628;-76
2021/04/25 18:01:01;;;;;;;1.20;1.07;;;;;;;11.89;36.01;99575.47;10362300;28;20196;-77
2021/04/25 18:06:20;;;;;;;2.00;1.30;;;;;;;11.53;37.71;99584.16;10363131;28;20213;-75
2021/04/25 18:11:39;;;;;;;3.33;1.57;;;;;;;11.24;38.33;99577.00;10378314;28;20177;-75
2021/04/25 18:16:58;;;;;;;4.50;1.40;;;;;;;11.03;39.03;99581.66;10376753;28;20564;-76
2021/04/25 18:22:19;;;;;;;1.70;1.30;;;;;;;10.83;40.04;99586.72;10377623;28;20587;-75
2021/04/25 18:27:39;;;;;;;3.60;1.30;;;;;;;10.76;40.29;99585.94;10377004;28;20200;-75
2021/04/25 18:32:59;;;;;;;1.70;1.60;;;;;;;10.41;41.34;99597.59;10377366;28;20176;-75
2021/04/25 18:38:19;;;;;;;1.67;1.33;;;;;;;10.21;41.93;99600.22;10377230;28;20623;-77
2021/04/25 18:43:38;;;;;;;1.97;1.33;;;;;;;10.08;42.39;99615.47;10375617;28;20176;-76
2021/04/25 18:48:57;;;;;;;1.57;1.47;;;;;;;9.98;42.49;99624.41;10359432;28;20212;-77
2021/04/25 18:54:16;;;;;;;1.20;1.03;;;;;;;9.73;43.33;99623.41;10374225;28;20173;-77
2021/04/25 18:59:35;;;;;;;2.60;1.27;;;;;;;9.58;43.90;99625.25;10358257;28;20228;-76
2021/04/25 19:04:54;;;;;;;4.40;1.97;;;;;;;9.55;44.21;99634.25;10373327;28;20208;-76
2021/04/25 19:10:15;;;;;;;1.33;1.17;;;;;;;9.49;44.57;99629.47;10373836;28;20176;-77
2021/04/25 19:15:34;;;;;;;1.50;1.40;;;;;;;9.40;45.25;99642.72;10357902;28;20181;-76
2021/04/25 19:20:54;;;;;;;1.53;1.43;;;;;;;9.24;45.70;99633.94;10373821;28;20177;-78
2021/04/25 19:26:15;;;;;;;3.97;2.63;;;;;;;9.07;46.73;99647.50;10373475;28;20291;-78
2021/04/25 19:31:34;;;;;;;1.30;1.10;;;;;;;8.96;47.02;99643.81;10372237;28;20189;-78
2021/04/25 19:36:53;;;;;;;1.43;1.30;;;;;;;8.83;47.61;99648.78;10373646;28;20177;-79
2021/04/25 19:42:12;;;;;;;2.27;0.87;;;;;;;8.70;47.90;99651.34;10374030;28;20223;-76
2021/04/25 19:47:31;;;;;;;4.60;1.30;;;;;;;8.62;48.29;99660.66;10349000;28;673539;-77
2021/04/25 19:52:50;;;;;;;3.77;1.10;;;;;;;8.46;49.16;99671.78;10374552;28;20259;-78
2021/04/25 19:58:09;;;;;;;1.17;0.80;;;;;;;8.41;48.91;99676.81;10357825;28;20204;-79
2021/04/25 20:03:28;;;;;;;3.13;1.40;;;;;;;8.31;49.08;99667.28;10359464;28;20200;-77
2021/04/25 20:08:48;;;;;;;2.53;1.90;;;;;;;8.18;49.92;99667.84;10373484;28;20200;-78
2021/04/25 20:14:07;;;;;;;2.30;1.97;;;;;;;8.01;50.26;99663.66;10357715;28;20177;-76
2021/04/25 20:19:26;;;;;;;2.43;1.70;;;;;;;7.92;50.56;99654.91;10373773;28;20627;-76
2021/04/25 20:24:45;;;;;;;5.93;1.67;;;;;;;7.77;50.72;99649.56;10373769;28;20200;-77
2021/04/25 20:30:08;;;;;;;1.87;1.57;;;;;;;7.58;51.61;99655.13;10357337;28;20184;-75
2021/04/25 20:35:28;;;;;;;1.50;1.10;;;;;;;7.53;51.65;99652.69;10373607;28;20260;-78
2021/04/25 20:40:47;;;;;;;1.77;1.27;;;;;;;7.38;52.66;99639.13;10373441;28;20209;-77
2021/04/25 20:46:06;;;;;;;2.50;1.43;;;;;;;7.24;52.92;99628.72;10371643;28;20227;-77
2021/04/25 20:51:25;;;;;;;1.60;1.13;;;;;;;7.09;53.91;99625.31;10373421;28;20261;-76
2021/04/25 20:56:45;;;;;;;4.20;1.57;;;;;;;6.95;54.03;99631.31;10372927;28;20193;-75
2021/04/25 21:02:04;;;;;;;1.20;1.10;;;;;;;6.89;54.42;99631.94;10371455;28;20176;-76
2021/04/25 21:07:22;;;;;;;1.00;0.73;;;;;;;6.73;55.32;99640.25;10372558;28;20212;-75
2021/04/25 21:12:42;;;;;;;1.73;1.17;;;;;;;6.65;55.39;99635.78;10372522;28;20255;-76
2021/04/25 21:18:02;;;;;;;3.00;1.73;;;;;;;6.58;55.55;99648.50;10372708;28;20204;-75
2021/04/25 21:23:21;;;;;;;1.87;1.47;;;;;;;6.62;54.91;99649.41;10357880;28;20185;-75
2021/04/25 21:28:40;;;;;;;2.00;1.40;;;;;;;6.70;55.22;99648.38;10362716;28;20208;-76
2021/04/25 21:34:00;;;;;;;2.53;1.57;;;;;;;6.56;55.52;99648.88;10379817;28;20212;-76
2021/04/25 21:39:19;;;;;;;6.13;1.87;;;;;;;6.47;55.57;99647.50;10364707;28;20208;-77
2021/04/25 21:44:38;;;;;;;1.20;0.90;;;;;;;6.52;55.21;99653.47;10377679;28;20232;-75
2021/04/25 21:49:57;;;;;;;3.00;1.20;;;;;;;6.53;55.11;99652.31;10379036;28;20620;-77
2021/04/25 21:55:16;;;;;;;2.50;1.13;;;;;;;6.53;55.65;99660.53;10378330;28;20267;-76
2021/04/25 22:00:48;;;;;;;1.53;1.20;;;;;;;6.52;55.35;99649.97;10362290;28;20176;-75
2021/04/25 22:06:08;;;;;;;1.90;1.20;;;;;;;6.50;56.06;99649.50;10378174;28;20212;-78
2021/04/25 22:11:30;;;;;;;1.30;0.80;;;;;;;6.50;56.09;99638.59;10363341;28;20180;-77
2021/04/25 22:16:49;;;;;;;1.50;0.90;;;;;;;6.45;56.39;99627.94;10376724;28;20184;-75
2021/04/25 22:22:08;;;;;;;1.20;1.03;;;;;;;6.43;57.36;99633.75;10377729;28;20173;-77
2021/04/25 22:27:27;;;;;;;4.00;2.10;;;;;;;6.46;56.92;99635.00;10377113;28;20209;-77
2021/04/25 22:32:47;;;;;;;12.20;1.80;;;;;;;6.48;56.92;99632.69;10362361;28;20184;-77
2021/04/25 22:38:06;;;;;;;1.83;1.10;;;;;;;6.46;57.25;99632.28;10376133;28;20176;-76
2021/04/25 22:43:25;;;;;;;0.90;0.60;;;;;;;6.42;57.31;99637.63;10375712;28;20181;-78
2021/04/25 22:48:44;;;;;;;1.90;1.53;;;;;;;6.36;57.64;99635.56;10376112;28;20232;-78
2021/04/25 22:54:04;;;;;;;3.03;1.30;;;;;;;6.33;57.99;99636.25;10376632;28;20169;-76
2021/04/25 22:59:23;;;;;;;1.70;1.10;;;;;;;6.21;58.90;99630.13;10374082;28;20192;-77
2021/04/25 23:04:42;;;;;;;1.50;1.10;;;;;;;6.14;58.58;99622.56;10375774;28;20232;-76
2021/04/25 23:10:04;;;;;;;1.57;1.47;;;;;;;6.05;58.85;99630.19;10361176;28;20631;-77
2021/04/25 23:15:23;;;;;;;0.90;0.70;;;;;;;6.01;58.98;99634.78;10359605;28;20169;-76
2021/04/25 23:20:42;;;;;;;1.20;1.00;;;;;;;5.99;59.05;99628.09;10360743;28;20181;-76
2021/04/25 23:26:02;;;;;;;1.80;1.43;;;;;;;5.93;59.19;99630.28;10373955;28;20208;-78
2021/04/25 23:31:21;;;;;;;1.17;1.03;;;;;;;5.85;60.00;99631.28;10373895;28;20172;-75
2021/04/25 23:36:40;;;;;;;1.67;1.53;;;;;;;5.87;59.89;99634.44;10375144;28;20180;-76
2021/04/25 23:41:59;;;;;;;2.07;1.10;;;;;;;5.79;60.11;99640.09;10359965;28;20173;-75
2021/04/25 23:47:18;;;;;;;1.53;1.10;;;;;;;5.83;60.28;99636.28;10372508;28;20232;-76
2021/04/25 23:52:37;;;;;;;2.40;2.20;;;;;;;5.77;60.33;99636.94;10359527;28;20176;-76
2021/04/25 23:57:56;;;;;;;2.50;0.93;;;;;;;5.70;60.60;99628.53;10372990;28;20192;-75
